createdAt,value
2019-01-21T01:09:24.828Z,63.65
2019-01-21T01:11:55.338Z,59.53
2019-01-21T01:21:00.243Z,58.20
2019-01-21T01:23:30.705Z,54.98
2019-01-21T01:26:00.598Z,51.58
2019-01-21T01:47:44.514Z,63.75
2019-01-21T01:50:09.707Z,55.88
2019-01-21T02:49:27.482Z,56.63
2019-01-21T02:52:45.737Z,43.63
2019-01-21T03:03:27.596Z,41.08
2019-01-21T03:06:49.400Z,43.02
2019-01-21T03:10:11.335Z,46.02
2019-01-21T03:13:30.701Z,38.63
2019-01-21T03:16:36.738Z,43.28
2019-01-21T03:19:41.502Z,41.60
2019-01-21T03:51:09.134Z,51.45
2019-01-21T03:54:10.645Z,48.28
2019-01-21T04:58:16.179Z,52.20
2019-01-21T06:11:45.698Z,38.98
2019-01-21T06:14:55.982Z,28.07
2019-01-21T06:17:57.037Z,47.03
2019-01-21T06:21:24.430Z,36.85
2019-01-21T06:24:35.700Z,46.58
2019-01-21T06:34:36.566Z,24.35
2019-01-21T08:36:04.642Z,46.63
2019-01-21T09:42:16.508Z,47.73
2019-01-21T10:51:11.062Z,44.27
2019-01-21T10:54:37.549Z,51.33
2019-01-21T10:57:43.370Z,55.73
2019-01-21T11:01:36.086Z,53.48
2019-01-21T11:04:47.832Z,49.95
2019-01-21T11:07:40.313Z,53.58
2019-01-21T11:10:40.377Z,47.67
2019-01-21T11:14:04.465Z,42.95
2019-01-21T11:17:25.276Z,47.62
2019-01-21T11:39:19.038Z,51.63
2019-01-21T11:42:24.866Z,48.28
2019-01-21T11:45:27.810Z,57.78
2019-01-21T11:48:33.118Z,50.33
2019-01-21T11:51:54.374Z,47.35
2019-01-21T12:01:15.404Z,59.08
2019-01-21T12:03:58.296Z,36.60
2019-01-21T12:07:08.902Z,51.60
2019-01-21T12:10:14.958Z,42.25
2019-01-21T12:19:42.962Z,51.88
2019-01-21T12:41:21.569Z,44.38
2019-01-21T12:44:44.079Z,49.27
2019-01-21T12:47:35.307Z,51.15
2019-01-21T13:18:13.344Z,46.40
2019-01-21T13:21:20.874Z,50.45
2019-01-21T13:24:36.280Z,47.85
2019-01-21T13:31:33.031Z,43.83
2019-01-21T13:34:53.789Z,56.28
2019-01-21T13:38:37.292Z,52.17
2019-01-21T13:48:39.987Z,47.93
2019-01-21T14:10:29.204Z,46.37
2019-01-21T14:13:46.824Z,48.02
2019-01-21T14:24:31.383Z,39.55
2019-01-21T15:08:36.889Z,49.27
2019-01-21T15:32:33.731Z,55.30
2019-01-21T15:42:31.002Z,54.23
2019-01-21T15:52:55.209Z,59.67
2019-01-21T16:03:50.614Z,55.48
2019-01-21T16:14:34.825Z,52.25
2019-01-21T16:25:54.089Z,72.30
2019-01-21T16:45:43.604Z,63.60
2019-01-21T16:48:13.835Z,52.23
2019-01-21T16:57:34.416Z,64.92
2019-01-21T17:00:05.459Z,63.08
2019-01-21T17:09:06.168Z,54.90
2019-01-21T17:18:55.726Z,51.05
2019-01-21T17:21:27.091Z,60.30
2019-01-21T17:23:57.215Z,65.37
2019-01-21T17:30:14.296Z,64.30
2019-01-21T17:32:44.470Z,61.48
2019-01-21T17:35:14.842Z,63.95
2019-01-21T17:56:52.341Z,44.83
2019-01-21T17:59:23.051Z,52.78
2019-01-21T18:23:50.279Z,49.05
2019-01-21T18:26:20.369Z,52.58
2019-01-21T18:28:50.847Z,55.35
2019-01-21T18:31:20.894Z,49.33
2019-01-21T18:33:51.108Z,54.30
2019-01-21T18:36:21.019Z,57.98
2019-01-21T18:38:51.987Z,52.33
2019-01-21T18:41:22.459Z,65.55
2019-01-21T18:47:43.378Z,69.27
2019-01-21T18:57:26.966Z,71.37
2019-01-21T19:07:45.841Z,60.48
2019-01-21T19:10:16.112Z,56.45
2019-01-21T19:12:46.293Z,55.45
2019-01-21T19:15:29.074Z,55.43
2019-01-21T19:17:59.408Z,66.10
2019-01-21T19:20:29.336Z,63.98
2019-01-21T19:22:59.566Z,59.75
2019-01-21T19:25:29.571Z,60.60
2019-01-21T19:41:39.327Z,51.23
2019-01-21T19:44:09.551Z,54.23
2019-01-21T19:46:44.051Z,62.67
2019-01-21T19:49:12.022Z,61.10
2019-01-21T19:51:42.214Z,54.98
2019-01-21T19:54:14.657Z,54.93
2019-01-21T19:56:44.945Z,63.87
2019-01-21T19:59:14.959Z,56.10
2019-01-21T20:01:45.040Z,63.10
2019-01-21T20:04:15.523Z,60.80
2019-01-21T20:06:45.655Z,70.87
2019-01-21T20:09:15.947Z,60.08
2019-01-21T20:11:45.983Z,56.58
2019-01-21T20:14:16.176Z,56.25
2019-01-21T20:16:46.120Z,62.93
2019-01-21T20:19:16.141Z,58.35
2019-01-21T20:21:46.920Z,60.70
2019-01-21T20:24:16.901Z,57.00
2019-01-21T20:26:47.408Z,57.38
2019-01-21T20:29:17.355Z,64.72
2019-01-21T20:31:47.848Z,50.30
2019-01-21T20:34:17.928Z,62.62
2019-01-21T20:36:47.864Z,67.22
2019-01-21T20:39:18.355Z,56.05
2019-01-21T20:41:48.318Z,57.53
2019-01-21T20:44:18.242Z,64.27
2019-01-21T20:46:48.261Z,65.20
2019-01-21T20:49:18.198Z,56.23
2019-01-21T20:51:48.466Z,63.68
2019-01-21T20:54:18.749Z,60.50
2019-01-21T20:56:49.558Z,61.30
2019-01-21T20:59:19.539Z,65.20
2019-01-21T21:01:49.549Z,66.75
2019-01-21T21:04:19.519Z,60.70
2019-01-21T21:06:49.816Z,55.50
2019-01-21T21:09:19.889Z,56.02
2019-01-21T21:11:49.958Z,72.70
2019-01-21T21:25:49.211Z,58.70
2019-01-21T21:28:19.190Z,62.83
2019-01-21T21:30:49.521Z,63.45
2019-01-21T21:33:19.413Z,54.93
2019-01-21T21:35:49.531Z,57.05
2019-01-21T21:38:19.834Z,58.95
2019-01-21T21:40:49.944Z,61.00
2019-01-21T21:43:22.256Z,70.25
2019-01-21T21:45:52.533Z,79.30
2019-01-21T21:52:07.831Z,63.92
2019-01-21T21:54:38.064Z,64.35
2019-01-21T21:57:08.924Z,70.55
2019-01-21T21:59:38.856Z,73.50
2019-01-21T22:02:10.202Z,57.08
2019-01-21T22:04:40.391Z,74.15
2019-01-21T22:07:10.980Z,57.50
2019-01-21T22:09:40.902Z,65.55
2019-01-21T22:12:11.127Z,73.00
2019-01-21T22:14:41.019Z,56.55
2019-01-21T22:17:11.219Z,56.98
2019-01-21T22:19:41.673Z,60.80
2019-01-21T22:22:12.379Z,56.37
2019-01-21T22:24:42.368Z,54.60
2019-01-21T22:27:12.341Z,59.15
2019-01-21T22:29:42.519Z,62.40
2019-01-21T22:32:12.581Z,56.90
2019-01-21T22:34:42.582Z,56.00
2019-01-21T22:37:14.040Z,72.62
2019-01-21T22:39:44.022Z,68.05
2019-01-21T22:42:14.190Z,87.82
2019-01-21T22:44:44.594Z,63.38
2019-01-21T22:47:14.526Z,77.50
2019-01-21T22:49:44.497Z,58.63
2019-01-21T22:52:14.413Z,62.03
2019-01-21T22:54:44.852Z,73.47
2019-01-21T22:57:15.518Z,57.90
2019-01-21T22:59:45.422Z,70.78
2019-01-21T23:02:15.332Z,63.48
2019-01-21T23:08:36.254Z,54.23
2019-01-21T23:11:06.335Z,67.60
2019-01-21T23:13:36.572Z,68.47
2019-01-21T23:16:06.765Z,83.45
2019-01-21T23:18:37.568Z,72.82
2019-01-21T23:21:07.479Z,75.78
2019-01-21T23:23:37.645Z,83.60
2019-01-21T23:26:07.712Z,65.20
2019-01-21T23:28:38.283Z,79.62
2019-01-21T23:31:08.562Z,61.45
2019-01-21T23:33:38.722Z,75.95
2019-01-21T23:36:09.454Z,70.30
2019-01-21T23:38:39.691Z,70.75
2019-01-21T23:41:09.895Z,92.60
2019-01-21T23:43:39.850Z,79.15
2019-01-21T23:46:10.027Z,65.37
2019-01-21T23:48:42.638Z,95.47
2019-01-21T23:51:12.949Z,80.20
2019-01-21T23:53:43.131Z,78.80
2019-01-21T23:56:13.281Z,91.80
2019-01-21T23:58:43.749Z,71.17
